createdAt,value
2018-01-04T00:00:50.811Z,3.30
2018-01-04T00:03:25.282Z,2.70
2018-01-04T00:05:59.745Z,10.20
2018-01-04T00:08:34.342Z,8.87
2018-01-04T00:11:08.820Z,13.80
2018-01-04T00:13:43.361Z,1.47
2018-01-04T00:16:17.703Z,7.33
2018-01-04T00:18:52.094Z,7.30
2018-01-04T00:21:26.546Z,6.90
2018-01-04T00:24:00.890Z,2.93
2018-01-04T00:26:35.589Z,4.60
2018-01-04T00:29:10.376Z,10.43
2018-01-04T00:31:44.881Z,1.27
2018-01-04T00:34:19.489Z,9.60
2018-01-04T00:36:53.886Z,7.03
2018-01-04T00:39:28.470Z,15.37
2018-01-04T00:42:02.885Z,5.50
2018-01-04T00:44:37.337Z,6.13
2018-01-04T00:47:11.729Z,3.50
2018-01-04T00:49:46.274Z,6.30
2018-01-04T00:52:20.673Z,6.73
2018-01-04T00:54:55.173Z,4.13
2018-01-04T00:57:29.680Z,2.90
2018-01-04T01:00:10.458Z,3.33
2018-01-04T01:02:44.854Z,6.63
2018-01-04T01:05:19.267Z,2.87
2018-01-04T01:07:53.764Z,4.43
2018-01-04T01:10:28.114Z,1.80
2018-01-04T01:13:02.680Z,2.50
2018-01-04T01:15:37.049Z,8.13
2018-01-04T01:18:11.601Z,7.50
2018-01-04T01:20:46.033Z,1.53
2018-01-04T01:23:20.450Z,3.13
2018-01-04T01:25:54.818Z,3.97
2018-01-04T01:28:29.377Z,3.47
2018-01-04T01:31:03.859Z,6.87
2018-01-04T01:33:38.462Z,1.97
2018-01-04T01:36:12.866Z,5.87
2018-01-04T01:38:47.406Z,3.53
2018-01-04T01:41:21.766Z,3.87
2018-01-04T01:43:56.253Z,5.90
2018-01-04T01:46:30.708Z,12.90
2018-01-04T01:49:15.784Z,4.57
2018-01-04T01:51:50.261Z,3.73
2018-01-04T01:54:24.796Z,4.33
2018-01-04T01:56:59.232Z,7.10
2018-01-04T01:59:33.782Z,5.57
2018-01-04T02:02:08.165Z,8.23
2018-01-04T02:04:42.647Z,7.23
2018-01-04T02:07:17.022Z,3.30
2018-01-04T02:09:51.555Z,5.93
2018-01-04T02:12:25.976Z,3.10
2018-01-04T02:15:00.549Z,8.60
2018-01-04T02:17:34.606Z,6.57
2018-01-04T02:20:20.313Z,6.00
2018-01-04T02:23:06.097Z,8.73
2018-01-04T02:25:53.765Z,3.87
2018-01-04T02:28:39.399Z,8.20
2018-01-04T02:31:24.913Z,2.37
2018-01-04T02:34:10.470Z,3.30
2018-01-04T02:36:56.102Z,5.60
2018-01-04T02:39:41.792Z,12.80
2018-01-04T02:42:22.256Z,3.43
2018-01-04T02:47:59.184Z,8.10
2018-01-04T02:50:33.610Z,6.23
2018-01-04T02:53:08.336Z,7.73
2018-01-04T02:55:43.051Z,7.17
2018-01-04T02:58:17.583Z,5.77
2018-01-04T03:00:52.182Z,12.43
2018-01-04T03:03:26.670Z,3.03
2018-01-04T03:06:01.141Z,5.27
2018-01-04T03:08:35.661Z,3.90
2018-01-04T03:11:10.037Z,7.57
2018-01-04T03:13:44.594Z,10.10
2018-01-04T03:16:19.078Z,10.57
2018-01-04T03:18:53.561Z,3.13
2018-01-04T03:21:27.802Z,7.20
2018-01-04T03:24:02.000Z,6.10
2018-01-04T03:26:41.725Z,6.20
2018-01-04T03:29:21.620Z,12.13
2018-01-04T03:32:01.662Z,7.23
2018-01-04T03:34:41.633Z,9.63
2018-01-04T03:37:21.521Z,7.53
2018-01-04T03:40:01.565Z,6.27
2018-01-04T03:42:41.504Z,9.60
2018-01-04T03:45:21.359Z,5.83
2018-01-04T03:48:01.393Z,6.37
2018-01-04T03:50:41.238Z,8.30
2018-01-04T03:53:21.234Z,5.23
2018-01-04T03:56:01.046Z,4.03
2018-01-04T03:58:41.174Z,4.30
2018-01-04T04:01:21.111Z,5.47
2018-01-04T04:03:55.632Z,12.23
2018-01-04T04:06:33.014Z,3.20
2018-01-04T04:09:07.538Z,3.30
2018-01-04T04:11:41.946Z,7.23
2018-01-04T04:14:16.517Z,5.07
2018-01-04T04:16:50.893Z,2.77
2018-01-04T04:19:25.441Z,8.40
2018-01-04T04:21:59.870Z,6.83
2018-01-04T04:24:34.461Z,7.17
2018-01-04T04:27:08.904Z,12.23
2018-01-04T04:29:43.406Z,2.00
2018-01-04T04:32:17.826Z,7.77
2018-01-04T04:34:52.417Z,6.00
2018-01-04T04:37:26.870Z,11.07
2018-01-04T04:40:01.415Z,9.97
2018-01-04T04:42:35.773Z,5.00
2018-01-04T04:45:12.131Z,5.80
2018-01-04T04:47:46.521Z,4.80
2018-01-04T04:50:20.917Z,12.90
2018-01-04T04:52:55.489Z,4.63
2018-01-04T04:55:29.926Z,3.50
2018-01-04T04:58:04.517Z,12.57
2018-01-04T05:00:39.011Z,6.60
2018-01-04T05:03:13.532Z,2.80
2018-01-04T05:05:47.955Z,8.90
2018-01-04T05:08:22.447Z,4.33
2018-01-04T05:10:56.818Z,3.07
2018-01-04T05:13:31.398Z,4.93
2018-01-04T05:16:05.756Z,2.97
2018-01-04T05:18:40.130Z,5.40
2018-01-04T05:21:14.626Z,3.33
2018-01-04T05:23:49.173Z,7.00
2018-01-04T05:26:23.618Z,9.60
2018-01-04T05:28:58.036Z,7.30
2018-01-04T05:31:32.455Z,4.40
2018-01-04T05:34:06.816Z,14.97
2018-01-04T05:36:41.261Z,8.00
2018-01-04T05:39:15.738Z,2.73
2018-01-04T05:41:50.106Z,9.43
2018-01-04T05:44:24.618Z,12.10
2018-01-04T05:46:58.994Z,5.23
2018-01-04T05:49:33.566Z,5.63
2018-01-04T05:52:07.946Z,10.23
2018-01-04T05:54:42.326Z,8.07
2018-01-04T05:57:16.834Z,2.47
2018-01-04T05:59:51.405Z,4.33
2018-01-04T06:02:25.865Z,5.03
2018-01-04T06:05:00.294Z,5.03
2018-01-04T06:07:34.670Z,2.87
2018-01-04T06:10:13.569Z,2.87
2018-01-04T06:12:47.965Z,3.37
2018-01-04T06:15:22.345Z,10.30
2018-01-04T06:17:56.988Z,7.07
2018-01-04T06:20:31.486Z,3.20
2018-01-04T06:23:05.992Z,5.20
2018-01-04T06:25:40.611Z,5.43
2018-01-04T06:28:15.185Z,1.80
2018-01-04T06:30:49.550Z,3.53
2018-01-04T06:33:24.141Z,6.43
2018-01-04T06:35:58.549Z,4.50
2018-01-04T06:38:33.177Z,6.23
2018-01-04T06:41:07.624Z,3.93
2018-01-04T06:43:42.090Z,4.83
2018-01-04T06:46:16.501Z,6.23
2018-01-04T06:48:51.136Z,3.60
2018-01-04T06:51:25.470Z,3.40
2018-01-04T06:53:59.978Z,7.70
2018-01-04T06:56:34.400Z,3.90
2018-01-04T06:59:08.954Z,4.27
2018-01-04T07:01:43.402Z,4.50
2018-01-04T07:04:17.822Z,3.50
2018-01-04T07:06:52.326Z,12.10
2018-01-04T07:09:26.837Z,4.50
2018-01-04T07:12:01.214Z,4.93
2018-01-04T07:14:35.610Z,5.77
2018-01-04T07:17:09.997Z,5.50
2018-01-04T07:19:44.695Z,8.87
2018-01-04T07:22:19.137Z,3.70
2018-01-04T07:24:53.730Z,3.10
2018-01-04T07:27:28.104Z,4.67
2018-01-04T07:30:02.763Z,4.90
2018-01-04T07:32:41.838Z,7.23
2018-01-04T07:35:16.709Z,3.10
2018-01-04T07:37:52.037Z,2.60
2018-01-04T07:40:26.392Z,3.57
2018-01-04T07:43:01.167Z,7.23
2018-01-04T07:45:35.721Z,6.70
2018-01-04T07:48:10.205Z,4.70
2018-01-04T07:50:44.610Z,5.77
2018-01-04T07:53:18.988Z,8.70
2018-01-04T07:55:53.399Z,1.57
2018-01-04T07:58:27.961Z,2.90
2018-01-04T08:01:02.310Z,2.77
2018-01-04T08:03:36.798Z,2.40
2018-01-04T08:06:11.274Z,2.93
2018-01-04T08:08:50.474Z,4.97
2018-01-04T08:11:24.934Z,3.33
2018-01-04T08:13:59.351Z,6.33
2018-01-04T08:16:33.422Z,3.47
2018-01-04T08:19:07.873Z,5.33
2018-01-04T08:21:42.277Z,3.97
2018-01-04T08:24:16.791Z,7.37
2018-01-04T08:26:51.267Z,4.10
2018-01-04T08:29:25.765Z,3.37
2018-01-04T08:32:00.238Z,1.30
2018-01-04T08:34:34.642Z,2.00
2018-01-04T08:37:09.709Z,6.33
2018-01-04T08:39:44.101Z,6.60
2018-01-04T08:42:18.460Z,1.60
2018-01-04T08:44:53.037Z,1.23
2018-01-04T08:47:27.473Z,4.37
2018-01-04T08:50:02.204Z,4.00
2018-01-04T08:52:38.777Z,2.10
2018-01-04T08:55:13.191Z,13.40
2018-01-04T08:57:47.859Z,3.00
2018-01-04T09:00:22.541Z,12.37
2018-01-04T09:02:57.038Z,7.63
2018-01-04T09:05:31.529Z,3.57
2018-01-04T09:08:06.105Z,9.53
2018-01-04T09:10:40.562Z,7.40
2018-01-04T09:13:15.097Z,2.90
2018-01-04T09:15:49.574Z,1.80
2018-01-04T09:18:24.158Z,4.67
2018-01-04T09:20:58.581Z,5.70
2018-01-04T09:23:33.121Z,5.30
2018-01-04T09:26:07.573Z,0.93
2018-01-04T09:28:41.937Z,8.30
2018-01-04T09:31:16.336Z,8.07
2018-01-04T09:33:50.694Z,12.03
2018-01-04T09:36:25.118Z,5.20
2018-01-04T09:38:59.489Z,4.80
2018-01-04T09:41:49.358Z,4.40
2018-01-04T09:44:23.872Z,8.37
2018-01-04T09:46:58.329Z,3.83
2018-01-04T09:49:39.222Z,5.80
2018-01-04T09:52:13.602Z,7.00
2018-01-04T09:54:48.117Z,7.00
2018-01-04T09:57:22.568Z,9.30
2018-01-04T09:59:57.033Z,5.43
2018-01-04T10:02:31.476Z,6.37
2018-01-04T10:05:12.186Z,8.70
2018-01-04T10:07:46.677Z,9.60
2018-01-04T10:10:21.497Z,4.67
2018-01-04T10:12:56.079Z,4.00
2018-01-04T10:15:30.455Z,4.53
2018-01-04T10:18:04.885Z,4.83
2018-01-04T10:20:39.374Z,5.47
2018-01-04T10:23:13.898Z,12.53
2018-01-04T10:25:48.285Z,16.77
2018-01-04T10:28:22.659Z,15.73
2018-01-04T10:30:57.029Z,11.33
2018-01-04T10:33:31.550Z,5.83
2018-01-04T10:36:05.870Z,2.83
2018-01-04T10:38:40.242Z,5.20
2018-01-04T10:41:14.614Z,11.40
2018-01-04T10:43:49.145Z,6.33
2018-01-04T10:46:23.610Z,7.63
2018-01-04T10:48:57.726Z,3.43
2018-01-04T10:51:32.246Z,8.27
2018-01-04T10:54:06.786Z,4.03
2018-01-04T10:56:41.414Z,3.73
2018-01-04T10:59:15.808Z,5.23
2018-01-04T11:01:50.217Z,3.30
2018-01-04T11:04:24.787Z,4.87
2018-01-04T11:06:59.181Z,4.17
2018-01-04T11:09:33.718Z,4.77
2018-01-04T11:12:08.208Z,9.73
2018-01-04T11:14:42.782Z,6.00
2018-01-04T11:17:17.165Z,12.03
2018-01-04T11:19:53.269Z,7.50
2018-01-04T11:22:28.002Z,4.73
2018-01-04T11:25:02.434Z,3.20
2018-01-04T11:27:36.780Z,5.67
2018-01-04T11:30:15.217Z,7.27
2018-01-04T11:32:49.626Z,9.07
2018-01-04T11:35:24.114Z,7.70
2018-01-04T11:37:58.717Z,5.40
2018-01-04T11:40:33.113Z,7.03
2018-01-04T11:43:07.817Z,4.17
2018-01-04T11:45:42.334Z,10.10
2018-01-04T11:48:16.918Z,7.93
2018-01-04T11:50:51.305Z,8.83
2018-01-04T11:53:26.090Z,6.50
2018-01-04T11:56:00.601Z,3.90
2018-01-04T11:58:35.098Z,11.40
2018-01-04T12:01:09.601Z,7.27
2018-01-04T12:03:44.310Z,4.10
2018-01-04T12:06:18.689Z,3.40
2018-01-04T12:08:53.742Z,5.77
2018-01-04T12:11:32.123Z,9.13
2018-01-04T12:14:06.630Z,5.70
2018-01-04T12:16:41.175Z,3.70
2018-01-04T12:19:15.565Z,7.90
2018-01-04T12:21:50.028Z,5.93
2018-01-04T12:24:24.494Z,8.67
2018-01-04T12:26:59.157Z,12.23
2018-01-04T12:29:33.686Z,3.07
2018-01-04T12:32:17.151Z,6.47
2018-01-04T12:34:52.345Z,8.00
2018-01-04T12:37:26.740Z,5.93
2018-01-04T12:40:01.170Z,11.53
2018-01-04T12:42:35.618Z,1.80
2018-01-04T12:45:15.323Z,3.60
2018-01-04T12:47:50.110Z,3.17
2018-01-04T12:50:24.522Z,3.60
2018-01-04T12:52:59.096Z,7.43
2018-01-04T12:55:33.682Z,4.27
2018-01-04T12:58:08.605Z,6.90
2018-01-04T13:00:43.253Z,6.20
2018-01-04T13:03:17.693Z,5.87
2018-01-04T13:05:52.039Z,3.67
2018-01-04T13:08:26.634Z,4.77
2018-01-04T13:11:01.021Z,5.10
2018-01-04T13:13:35.390Z,4.70
2018-01-04T13:16:09.768Z,1.90
2018-01-04T13:18:44.178Z,9.00
2018-01-04T13:21:18.522Z,4.93
2018-01-04T13:23:52.973Z,3.80
2018-01-04T13:26:27.371Z,4.47
2018-01-04T13:29:01.964Z,7.67
2018-01-04T13:31:36.732Z,6.70
2018-01-04T13:34:11.221Z,7.63
2018-01-04T13:36:45.671Z,10.97
2018-01-04T13:39:20.592Z,5.47
2018-01-04T13:41:55.121Z,7.30
2018-01-04T13:44:29.846Z,3.50
2018-01-04T13:47:04.400Z,4.23
2018-01-04T13:49:39.178Z,7.30
2018-01-04T13:52:13.790Z,5.90
2018-01-04T13:54:48.890Z,5.57
2018-01-04T13:57:23.522Z,5.70
2018-01-04T13:59:58.098Z,7.03
2018-01-04T14:02:32.589Z,8.43
2018-01-04T14:05:07.170Z,5.37
2018-01-04T14:07:41.607Z,4.23
2018-01-04T14:10:16.047Z,4.10
2018-01-04T14:12:50.698Z,6.20
2018-01-04T14:15:25.169Z,2.30
2018-01-04T14:17:59.614Z,5.30
2018-01-04T14:20:33.984Z,6.27
2018-01-04T14:23:08.501Z,2.93
2018-01-04T14:25:42.973Z,4.93
2018-01-04T14:28:17.982Z,3.50
2018-01-04T14:30:52.446Z,4.50
2018-01-04T14:33:26.855Z,4.90
2018-01-04T14:36:01.244Z,9.90
2018-01-04T14:38:35.823Z,2.83
2018-01-04T14:41:10.381Z,4.63
2018-01-04T14:43:44.866Z,2.30
2018-01-04T14:46:19.250Z,3.33
2018-01-04T14:48:53.622Z,14.90
2018-01-04T14:51:28.003Z,5.70
2018-01-04T14:54:02.536Z,6.43
2018-01-04T14:56:36.981Z,9.03
2018-01-04T14:59:11.556Z,5.70
2018-01-04T15:01:46.046Z,6.10
2018-01-04T15:04:20.683Z,10.93
2018-01-04T15:06:55.243Z,8.53
2018-01-04T15:09:29.734Z,16.97
2018-01-04T15:12:04.083Z,8.00
2018-01-04T15:14:38.653Z,4.40
2018-01-04T15:17:13.081Z,7.77
2018-01-04T15:19:47.566Z,6.27
2018-01-04T15:22:21.964Z,9.83
2018-01-04T15:24:56.499Z,7.17
2018-01-04T15:27:31.238Z,8.73
2018-01-04T15:30:09.954Z,17.83
2018-01-04T15:32:44.343Z,31.50
2018-01-04T15:35:19.193Z,22.57
2018-01-04T15:37:53.665Z,18.90
2018-01-04T15:40:28.141Z,17.53
2018-01-04T15:43:03.458Z,8.20
2018-01-04T15:45:37.897Z,8.43
2018-01-04T15:48:12.931Z,13.20
2018-01-04T15:50:47.638Z,13.73
2018-01-04T15:53:25.358Z,10.17
2018-01-04T15:55:59.903Z,5.40
2018-01-04T15:58:34.467Z,10.33
2018-01-04T16:01:09.049Z,10.77
2018-01-04T16:03:43.584Z,8.20
2018-01-04T16:06:18.407Z,23.00
2018-01-04T16:08:52.814Z,11.97
2018-01-04T16:11:28.137Z,6.00
2018-01-04T16:14:02.727Z,21.37
2018-01-04T16:16:37.334Z,26.73
2018-01-04T16:19:11.726Z,14.40
2018-01-04T16:21:46.089Z,16.40
2018-01-04T16:24:20.617Z,12.30
2018-01-04T16:26:54.981Z,16.20
2018-01-04T16:29:30.562Z,11.90
2018-01-04T16:32:04.987Z,10.90
2018-01-04T16:34:39.449Z,9.97
2018-01-04T16:37:14.780Z,12.47
2018-01-04T16:39:49.265Z,5.13
2018-01-04T16:42:23.746Z,14.97
2018-01-04T16:44:58.283Z,14.10
2018-01-04T16:47:33.150Z,8.27
2018-01-04T16:50:08.825Z,21.43
2018-01-04T16:52:43.416Z,11.20
2018-01-04T16:55:17.918Z,14.47
2018-01-04T16:57:52.432Z,11.40
2018-01-04T17:00:26.988Z,13.87
2018-01-04T17:03:02.774Z,13.37
2018-01-04T17:05:37.162Z,15.33
2018-01-04T17:08:11.753Z,14.00
2018-01-04T17:10:46.313Z,13.13
2018-01-04T17:13:25.698Z,12.00
2018-01-04T17:16:00.135Z,13.10
2018-01-04T17:18:34.781Z,11.17
2018-01-04T17:21:09.121Z,19.30
2018-01-04T17:23:43.646Z,15.73
2018-01-04T17:26:18.042Z,15.17
2018-01-04T17:28:52.630Z,15.33
2018-01-04T17:31:27.232Z,7.47
2018-01-04T17:34:01.557Z,8.87
2018-01-04T17:36:35.974Z,15.30
2018-01-04T17:39:10.600Z,6.40
2018-01-04T17:41:45.146Z,18.30
2018-01-04T17:44:19.734Z,8.43
2018-01-04T17:46:55.085Z,19.47
2018-01-04T17:49:29.403Z,15.10
2018-01-04T17:52:03.922Z,12.80
2018-01-04T17:54:38.563Z,13.70
2018-01-04T17:57:13.292Z,13.97
2018-01-04T17:59:47.868Z,12.27
2018-01-04T18:02:22.280Z,14.50
2018-01-04T18:04:57.120Z,20.17
2018-01-04T18:07:31.490Z,16.53
2018-01-04T18:10:08.994Z,17.53
2018-01-04T18:12:43.819Z,110.47
2018-01-04T18:15:18.303Z,37.47
2018-01-04T18:17:52.802Z,32.10
2018-01-04T18:20:27.250Z,15.10
2018-01-04T18:23:01.509Z,22.83
2018-01-04T18:25:36.030Z,23.17
2018-01-04T18:28:10.524Z,14.30
2018-01-04T18:30:44.953Z,19.87
2018-01-04T18:33:19.508Z,17.70
2018-01-04T18:35:53.973Z,18.63
2018-01-04T18:38:29.153Z,31.67
2018-01-04T18:41:03.732Z,24.63
2018-01-04T18:43:38.456Z,30.23
2018-01-04T18:46:13.005Z,39.23
2018-01-04T18:48:47.398Z,39.83
2018-01-04T18:51:21.777Z,20.77
2018-01-04T18:53:56.146Z,35.30
2018-01-04T18:56:30.570Z,37.00
2018-01-04T18:59:05.034Z,31.23
2018-01-04T19:01:39.542Z,24.40
2018-01-04T19:04:13.962Z,33.30
2018-01-04T19:06:48.338Z,33.27
2018-01-04T19:09:22.787Z,33.83
2018-01-04T19:11:57.284Z,25.47
2018-01-04T19:14:31.666Z,30.70
2018-01-04T19:17:06.041Z,23.37
2018-01-04T19:19:40.536Z,25.33
2018-01-04T19:22:15.022Z,24.30
2018-01-04T19:24:49.403Z,26.87
2018-01-04T19:27:23.846Z,30.73
2018-01-04T19:29:58.353Z,28.83
2018-01-04T19:32:33.061Z,29.97
2018-01-04T19:35:13.977Z,25.17
2018-01-04T19:37:48.335Z,21.33
2018-01-04T19:40:22.990Z,24.63
2018-01-04T19:42:57.383Z,16.90
2018-01-04T19:45:32.633Z,18.33
2018-01-04T19:48:07.159Z,17.20
2018-01-04T19:50:41.601Z,18.17
2018-01-04T19:53:16.149Z,12.73
2018-01-04T19:55:51.875Z,13.83
2018-01-04T19:58:26.467Z,16.87
2018-01-04T20:01:00.884Z,18.53
2018-01-04T20:03:35.456Z,12.30
2018-01-04T20:06:09.981Z,11.70
2018-01-04T20:08:44.545Z,12.57
2018-01-04T20:11:19.029Z,10.27
2018-01-04T20:13:53.589Z,14.67
2018-01-04T20:16:27.953Z,10.30
2018-01-04T20:19:02.517Z,12.00
2018-01-04T20:21:36.875Z,8.20
2018-01-04T20:24:11.673Z,18.07
2018-01-04T20:26:45.696Z,18.40
2018-01-04T20:29:20.313Z,20.80
2018-01-04T20:31:55.056Z,20.27
2018-01-04T20:34:29.450Z,15.23
2018-01-04T20:37:03.814Z,13.73
2018-01-04T20:39:38.322Z,16.30
2018-01-04T20:42:12.687Z,14.70
2018-01-04T20:44:47.210Z,11.23
2018-01-04T20:47:21.661Z,13.97
2018-01-04T20:49:56.135Z,16.57
2018-01-04T20:52:30.581Z,21.23
2018-01-04T20:55:11.377Z,17.93
2018-01-04T20:57:45.850Z,13.00
2018-01-04T21:00:20.218Z,32.07
2018-01-04T21:02:54.849Z,22.37
2018-01-04T21:05:30.170Z,28.53
2018-01-04T21:08:05.376Z,26.03
2018-01-04T21:10:39.978Z,20.03
2018-01-04T21:13:14.500Z,21.70
2018-01-04T21:15:48.883Z,24.33
2018-01-04T21:18:24.410Z,14.10
2018-01-04T21:21:05.112Z,16.53
2018-01-04T21:23:43.845Z,15.10
2018-01-04T21:26:18.346Z,12.37
2018-01-04T21:28:59.064Z,10.10
2018-01-04T21:31:33.535Z,5.03
2018-01-04T21:34:07.973Z,9.17
2018-01-04T21:36:42.586Z,6.00
2018-01-04T21:39:16.957Z,5.60
2018-01-04T21:41:51.298Z,10.03
2018-01-04T21:44:25.914Z,12.93
2018-01-04T21:47:00.365Z,9.83
2018-01-04T21:49:34.853Z,9.83
2018-01-04T21:52:09.399Z,12.53
2018-01-04T21:54:43.862Z,8.10
2018-01-04T21:57:18.351Z,12.97
2018-01-04T21:59:52.769Z,18.10
2018-01-04T22:02:27.310Z,11.80
2018-01-04T22:05:01.635Z,9.13
2018-01-04T22:07:36.241Z,17.37
2018-01-04T22:10:13.844Z,10.17
2018-01-04T22:12:48.338Z,7.53
2018-01-04T22:15:22.934Z,14.57
2018-01-04T22:17:57.405Z,11.63
2018-01-04T22:20:31.595Z,17.77
2018-01-04T22:23:06.166Z,13.40
2018-01-04T22:25:40.671Z,10.93
2018-01-04T22:28:15.218Z,10.63
2018-01-04T22:30:49.600Z,10.40
2018-01-04T22:33:24.131Z,12.83
2018-01-04T22:35:58.654Z,14.10
2018-01-04T22:38:33.042Z,31.63
2018-01-04T22:41:07.493Z,12.93
2018-01-04T22:43:41.950Z,11.13
2018-01-04T22:46:16.563Z,18.00
2018-01-04T22:48:51.101Z,9.23
2018-01-04T22:51:24.982Z,14.47
2018-01-04T22:53:59.430Z,9.20
2018-01-04T22:56:33.895Z,11.80
2018-01-04T22:59:08.435Z,14.67
2018-01-04T23:01:42.801Z,5.90
2018-01-04T23:04:17.193Z,6.47
2018-01-04T23:06:51.670Z,10.90
2018-01-04T23:09:26.337Z,8.13
2018-01-04T23:12:00.945Z,4.23
2018-01-04T23:14:35.386Z,4.73
2018-01-04T23:17:09.770Z,5.70
2018-01-04T23:19:44.266Z,7.50
2018-01-04T23:22:18.633Z,7.20
2018-01-04T23:24:52.506Z,7.63
2018-01-04T23:27:26.874Z,4.97
2018-01-04T23:30:01.400Z,3.90
2018-01-04T23:32:35.766Z,5.90
2018-01-04T23:35:14.097Z,2.70
2018-01-04T23:37:48.479Z,2.70
2018-01-04T23:40:22.835Z,2.40
2018-01-04T23:42:57.258Z,5.80
2018-01-04T23:45:31.712Z,3.13
2018-01-04T23:48:06.106Z,3.17
2018-01-04T23:50:40.590Z,8.43
2018-01-04T23:53:15.074Z,7.83
2018-01-04T23:55:49.536Z,4.40
2018-01-04T23:58:23.893Z,5.20
